DAAGDAOB

Guest
Details From DAAG - Alger Houari Boumediene
To DAOB - BOU CHEKIF
Flight Number -
Tags generated
Created
Modified
Stats Distance 133 nm / 246 km
Max Altitude 16,600 ft / 5,060 m
Waypoints 3
Social Downloads 0
Likes 0
Share VATSIM

Download

Looking for another format? Having issues loading an existing format? Contact us
Advertisement - Login to hide

Notes

Basic altitude profile: - Ascent Rate: 2500ft/min - Ascent Speed: 250kts - Cruise Altitude: 35000ft - Cruise Speed: 420kts - Descent Rate: 1500ft/min - Descent Speed: 250kts Options: - Use NATs: yes - Use PACOTS: yes - Use low airways: yes - Use high airways: yes

Route

DAAG CHE DAOB

ID Type Via Altitude Latitude Longitude Leg Dist Tot Dist Heading (true) Name
O DAAG APT - 0 ft / 0 m 36.69752˚ 3.21308˚ - 0 nm - Alger Houari Boumediene
CHE NDB - 16,600 ft / 5,060 m 36.60139˚ 2.19333˚ 49 nm 49 nm 264° / 263° CHERCHELL NDB
O DAOB APT - 0 ft / 0 m 35.34114˚ 1.46315˚ 83 nm 133 nm 205° / 205° BOU CHEKIF

Altitude Profile

Advertisement - Login to hide

DAAG

Details ICAO DAAG (ALG)
Name Alger Houari Boumediene
Region Algeria
Timezone Africa/Algiers (UTC+1.0)
Stats Elevation 82 ft / 25 m (AMSL)
Location 36.697521° 3.213079°
Runways 2
Magnetic Variation 1.109° E

METAR

DAAG 181500Z 05014KT 9999 FEW026 SCT200 27/16 Q1019

Decode

TAF

TAF TAF DAAG 181100Z 1812/1912 04015KT 9999 FEW023 BECMG 1821/1824 VRB02KT PROB30 TEMPO 1906/1912 FEW023TCU BECMG 1908/1911 02012KT

Decode

Departure Runways

ID Width Length Bearing (true) Bearing (mag) Surface Threshold Offset Overrun Length
05 197 ft / 60 m 11,459 ft / 3,493 m 52.87° 51.76° Asphalt 0 ft / 0 m 0 ft / 0 m
09 148 ft / 45 m 11,442 ft / 3,487 m 91.75° 90.64° Asphalt 0 ft / 0 m 1,017 ft / 310 m
23 197 ft / 60 m 11,459 ft / 3,493 m 232.89° 231.78° Asphalt 0 ft / 0 m 0 ft / 0 m
27 148 ft / 45 m 11,442 ft / 3,487 m 271.78° 270.67° Asphalt 0 ft / 0 m 0 ft / 0 m

DAOB

Details ICAO DAOB (TID)
Name BOU CHEKIF
Region Algeria
Timezone Africa/Algiers (UTC+1.0)
Stats Elevation 3,245 ft / 989 m (AMSL)
Location 35.341136° 1.463147°
Runways 1
Magnetic Variation 0.688° E

METAR

DAOB 181500Z 33009KT CAVOK 30/05 Q1020

Decode

TAF

TAF TAF DAOB 181100Z 1812/1912 36012KT CAVOK BECMG 1823/1902 VRB02KT BECMG 1909/1912 04010KT

Decode

Destination Runways

ID Width Length Bearing (true) Bearing (mag) Surface Threshold Offset Overrun Length
08 148 ft / 45 m 9,810 ft / 2,990 m 81.23° 80.54° Asphalt 0 ft / 0 m 198 ft / 60 m
26 148 ft / 45 m 9,810 ft / 2,990 m 261.25° 260.56° Asphalt 0 ft / 0 m 198 ft / 60 m

Popular Alternatives